Aviation Digital Data Service (ADDS)

Output produced by TAFs form (1023 UTC 23 March 2017)
found at http://aviationweather.gov/adds/tafs/
 
KLVS 230533Z 2306/2406 17017KT P6SM BKN200 
     FM231500 21022G33KT P6SM SCT150 
     FM231800 22037G49KT P6SM SCT140 
     FM232200 25029G40KT P6SM BKN100 
     FM240200 28021G31KT P6SM SCT070